Atka, Alaska
Current Conditions -  °F | °C
As of 6:56 AM on Thursday 27 Nov 2014 (Local Time) from PAAK Reporting Station
Broken Clouds Broken Clouds  
Wind Chill:   Ceiling: 3900
Heat Index:   Visibility: 10mi
Dew Point: -1°   Wind: 10mph
Humidity: 70%   Direction: 230°SW
Pressure: 29.71"   Gusts: NA
Location:  52.19°N, 174.2°W
Report Text: PAAK 271656Z 23009KT 10SM FEW020 SCT033 BKN039 04/M01 A2971 RMK AO1
Loading
Personal Weather Stations






























Interactive Weather Map New forecast layout! Learn more

10-Day Weather Forecast

Advertisements
Track Severe Weather on mobile